Time;durP1;ratioP1;P1;durP2;ratioP2;P2;SDS_P1;SDS_P2;PMS_P1;PMS_P2;Temp;Humidity;BMP_temperature;BMP_pressure;BME280_temperature;BME280_humidity;BME280_pressure;Samples;Min_cycle;Max_cycle;Signal;HPM_P1;HPM_P2
2021/04/18 00:01:39;;;;;;;3.55;1.20;;;4.30;81.10;;;;;;5080942;28;20227;-72
2021/04/18 00:04:06;;;;;;;1.40;1.20;;;4.20;80.80;;;;;;5077238;28;20585;-72
2021/04/18 00:06:39;;;;;;;1.55;1.23;;;4.20;81.60;;;;;;5078993;28;20207;-73
2021/04/18 00:09:06;;;;;;;1.73;1.13;;;4.20;81.50;;;;;;5064208;28;20245;-73
2021/04/18 00:11:32;;;;;;;2.72;1.40;;;4.30;82.10;;;;;;5080087;28;20329;-71
2021/04/18 00:13:58;;;;;;;1.95;1.25;;;4.30;81.70;;;;;;5081103;28;20717;-73
2021/04/18 00:16:24;;;;;;;2.70;1.33;;;4.40;81.60;;;;;;5066057;28;20200;-72
2021/04/18 00:18:50;;;;;;;1.35;1.20;;;4.40;81.10;;;;;;5083716;28;20224;-73
2021/04/18 00:21:16;;;;;;;1.80;1.20;;;4.40;81.20;;;;;;5068102;28;20273;-73
2021/04/18 00:23:42;;;;;;;4.30;1.30;;;4.40;81.50;;;;;;5083726;28;20207;-72
2021/04/18 00:26:08;;;;;;;4.18;1.50;;;4.40;81.30;;;;;;5084895;28;20270;-72
2021/04/18 00:28:33;;;;;;;2.28;1.40;;;4.40;81.20;;;;;;5085098;28;20204;-73
2021/04/18 00:30:59;;;;;;;1.98;1.35;;;4.50;81.00;;;;;;5079824;28;20295;-72
2021/04/18 00:33:25;;;;;;;1.75;1.40;;;4.50;81.20;;;;;;5083376;28;20203;-71
2021/04/18 00:35:52;;;;;;;2.08;1.20;;;4.50;82.30;;;;;;5074472;28;20212;-72
2021/04/18 00:38:18;;;;;;;3.53;1.20;;;4.30;84.70;;;;;;5080115;28;20311;-72
2021/04/18 00:40:43;;;;;;;2.40;1.50;;;4.10;87.10;;;;;;5080674;28;20239;-72
2021/04/18 00:43:10;;;;;;;1.83;1.40;;;4.00;84.60;;;;;;5080067;28;20224;-72
2021/04/18 00:45:36;;;;;;;3.83;1.20;;;4.00;86.90;;;;;;5079417;28;20194;-73
2021/04/18 00:48:02;;;;;;;2.13;1.20;;;3.90;86.60;;;;;;5077353;28;20205;-71
2021/04/18 00:50:33;;;;;;;1.77;1.17;;;3.80;86.40;;;;;;5084621;28;20200;-72
2021/04/18 00:53:03;;;;;;;2.40;1.40;;;3.70;88.70;;;;;;5081302;28;20210;-72
2021/04/18 00:55:30;;;;;;;1.20;1.10;;;3.60;88.50;;;;;;5079857;28;20223;-69
2021/04/18 00:57:56;;;;;;;3.05;1.40;;;3.50;88.40;;;;;;5081896;28;20196;-73
2021/04/18 01:00:30;;;;;;;1.38;1.20;;;3.50;86.10;;;;;;5066346;28;20263;-67
2021/04/18 01:02:56;;;;;;;2.10;1.10;;;3.60;87.50;;;;;;5081761;28;20548;-65
2021/04/18 01:05:22;;;;;;;3.35;1.20;;;3.50;89.40;;;;;;5057730;22;20236;-72
2021/04/18 01:07:47;;;;;;;1.60;1.00;;;3.50;87.60;;;;;;5041731;28;20202;-72
2021/04/18 01:10:15;;;;;;;2.33;1.25;;;3.40;88.70;;;;;;5043800;28;20202;-69
2021/04/18 01:12:41;;;;;;;1.55;1.30;;;3.40;87.10;;;;;;5039966;28;20609;-69
2021/04/18 01:15:09;;;;;;;1.23;1.10;;;3.50;86.30;;;;;;5039149;28;20228;-70
2021/04/18 01:17:35;;;;;;;2.45;1.40;;;3.70;86.00;;;;;;5039719;28;20264;-69
2021/04/18 01:20:02;;;;;;;3.67;1.58;;;3.80;85.40;;;;;;5039262;28;20297;-72
2021/04/18 01:22:28;;;;;;;2.05;1.20;;;3.90;84.50;;;;;;5043134;28;20284;-71
2021/04/18 01:24:54;;;;;;;1.95;1.17;;;3.90;84.60;;;;;;5039983;28;20223;-71
2021/04/18 01:27:22;;;;;;;4.18;1.33;;;3.90;87.30;;;;;;5043250;28;20197;-74
2021/04/18 01:29:48;;;;;;;1.73;1.10;;;3.70;88.80;;;;;;5041191;28;20189;-72
2021/04/18 01:32:15;;;;;;;2.30;1.35;;;3.60;88.20;;;;;;5041456;28;20208;-70
2021/04/18 01:34:44;;;;;;;2.80;1.20;;;3.60;87.50;;;;;;5040434;28;20201;-72
2021/04/18 01:37:12;;;;;;;2.00;1.38;;;3.60;87.20;;;;;;5042526;28;20241;-70
2021/04/18 01:39:38;;;;;;;1.73;1.20;;;3.60;89.00;;;;;;5039601;28;20720;-71
2021/04/18 01:42:05;;;;;;;1.58;1.30;;;3.50;88.90;;;;;;5040901;28;20198;-70
2021/04/18 01:44:31;;;;;;;1.75;1.10;;;3.40;89.70;;;;;;5039604;28;20194;-72
2021/04/18 01:46:57;;;;;;;1.25;1.15;;;3.20;90.70;;;;;;5043698;28;20255;-72
2021/04/18 01:49:23;;;;;;;3.38;1.30;;;3.00;91.40;;;;;;5040407;28;20644;-72
2021/04/18 01:51:49;;;;;;;1.58;1.27;;;2.90;92.20;;;;;;5043558;28;20227;-73
2021/04/18 01:54:15;;;;;;;1.95;1.10;;;2.70;92.70;;;;;;5039756;28;20303;-72
2021/04/18 01:56:40;;;;;;;1.60;1.15;;;2.60;93.70;;;;;;5040723;28;20209;-70
2021/04/18 01:59:06;;;;;;;2.05;1.13;;;2.40;93.80;;;;;;5040717;28;20725;-70
2021/04/18 02:01:32;;;;;;;1.73;1.25;;;2.30;93.50;;;;;;5036940;28;20254;-71
2021/04/18 02:03:58;;;;;;;1.45;1.10;;;2.20;94.40;;;;;;5037769;28;20225;-71
2021/04/18 02:06:23;;;;;;;3.03;1.30;;;2.10;94.50;;;;;;5040351;28;20264;-72
2021/04/18 02:08:49;;;;;;;1.40;1.10;;;2.10;95.00;;;;;;5042080;28;20284;-73
2021/04/18 02:11:15;;;;;;;5.13;1.20;;;1.90;95.30;;;;;;5041828;28;20216;-72
2021/04/18 02:13:40;;;;;;;2.80;1.38;;;1.90;95.20;;;;;;5044514;28;20284;-72
2021/04/18 02:16:06;;;;;;;2.78;1.20;;;1.90;95.50;;;;;;5041026;28;20213;-71
2021/04/18 02:18:32;;;;;;;3.88;1.30;;;1.90;95.40;;;;;;5042812;28;20200;-71
2021/04/18 02:20:57;;;;;;;3.80;1.30;;;1.90;95.10;;;;;;5044670;28;20312;-71
2021/04/18 02:23:24;;;;;;;1.08;0.98;;;2.00;95.00;;;;;;5042481;28;20805;-72
2021/04/18 02:25:51;;;;;;;3.38;1.20;;;2.10;95.40;;;;;;5045166;28;20236;-71
2021/04/18 02:28:16;;;;;;;1.48;1.27;;;2.20;93.80;;;;;;5046276;28;20186;-71
2021/04/18 02:30:42;;;;;;;1.42;1.15;;;2.20;93.80;;;;;;5043964;28;20204;-71
2021/04/18 02:33:08;;;;;;;2.63;1.20;;;2.20;94.20;;;;;;5043588;28;20200;-72
2021/04/18 02:35:33;;;;;;;2.08;1.20;;;2.30;94.30;;;;;;5039255;28;20290;-72
2021/04/18 02:37:59;;;;;;;3.55;1.20;;;2.40;93.00;;;;;;5040516;28;20201;-74
2021/04/18 02:40:25;;;;;;;1.95;1.30;;;2.70;92.80;;;;;;5043285;28;20705;-71
2021/04/18 02:42:50;;;;;;;2.08;1.25;;;2.70;92.90;;;;;;5044046;28;20228;-69
2021/04/18 02:45:16;;;;;;;1.40;1.30;;;2.70;92.60;;;;;;5042876;28;20659;-71
2021/04/18 02:47:42;;;;;;;1.60;1.20;;;2.70;92.60;;;;;;5042165;28;20216;-72
2021/04/18 02:50:09;;;;;;;5.00;1.42;;;2.70;93.60;;;;;;5043811;28;20205;-73
2021/04/18 02:52:35;;;;;;;1.33;1.23;;;2.60;94.20;;;;;;5041557;28;20657;-72
2021/04/18 02:55:01;;;;;;;4.78;1.25;;;2.70;92.40;;;;;;5037228;28;20201;-71
2021/04/18 02:57:27;;;;;;;2.70;1.20;;;2.90;91.90;;;;;;5039844;28;20193;-70
2021/04/18 02:59:52;;;;;;;2.30;1.20;;;2.90;92.50;;;;;;5042846;28;20201;-74
2021/04/18 03:02:18;;;;;;;3.13;1.50;;;2.80;92.70;;;;;;5044354;28;20254;-71
2021/04/18 03:04:44;;;;;;;1.88;1.25;;;2.90;91.80;;;;;;5043640;28;20299;-71
2021/04/18 03:07:10;;;;;;;3.72;1.30;;;3.00;93.40;;;;;;5042372;28;20222;-72
2021/04/18 03:09:36;;;;;;;1.75;1.20;;;2.90;93.10;;;;;;5040124;28;20194;-71
2021/04/18 03:12:02;;;;;;;1.92;1.10;;;2.70;93.40;;;;;;5042398;28;20194;-70
2021/04/18 03:14:28;;;;;;;1.98;1.10;;;2.50;94.20;;;;;;5043701;28;20748;-71
2021/04/18 03:16:53;;;;;;;1.50;1.20;;;2.30;94.70;;;;;;5042862;28;20213;-71
2021/04/18 03:19:19;;;;;;;1.20;1.02;;;2.20;95.20;;;;;;5044121;28;20671;-72
2021/04/18 03:21:45;;;;;;;2.28;1.20;;;2.10;95.50;;;;;;5059010;28;20578;-70
2021/04/18 03:24:11;;;;;;;2.00;1.20;;;2.10;95.30;;;;;;5046737;28;20190;-70
2021/04/18 03:26:37;;;;;;;1.50;1.20;;;1.90;96.00;;;;;;5042149;28;20255;-71
2021/04/18 03:29:03;;;;;;;3.60;1.20;;;1.80;96.20;;;;;;5046094;28;20239;-72
2021/04/18 03:31:29;;;;;;;2.25;1.10;;;1.70;96.80;;;;;;5061375;28;20259;-72
2021/04/18 03:33:54;;;;;;;1.85;1.20;;;1.80;96.10;;;;;;5044941;28;20201;-72
2021/04/18 03:36:20;;;;;;;1.40;1.25;;;2.00;95.80;;;;;;5044129;28;20202;-71
2021/04/18 03:38:46;;;;;;;2.85;1.20;;;1.90;97.10;;;;;;5042077;28;20243;-70
2021/04/18 03:41:11;;;;;;;2.40;1.50;;;1.90;96.50;;;;;;5042791;28;20194;-70
2021/04/18 03:43:37;;;;;;;1.60;1.15;;;2.00;96.10;;;;;;5044156;28;20247;-70
2021/04/18 03:46:03;;;;;;;7.30;1.17;;;2.10;95.70;;;;;;5041940;28;20206;-70
2021/04/18 03:48:29;;;;;;;4.00;1.13;;;2.30;95.50;;;;;;5043822;28;20202;-69
2021/04/18 03:50:55;;;;;;;2.08;1.10;;;2.40;95.20;;;;;;5045989;28;20197;-68
2021/04/18 03:53:21;;;;;;;1.13;0.98;;;2.40;94.90;;;;;;5045024;28;20243;-69
2021/04/18 03:55:46;;;;;;;4.53;1.50;;;2.50;95.10;;;;;;5047340;28;20262;-70
2021/04/18 03:58:12;;;;;;;1.35;1.13;;;2.60;95.00;;;;;;5047074;28;20942;-70
2021/04/18 04:00:38;;;;;;;1.73;1.30;;;2.60;94.70;;;;;;5043945;28;20197;-71
2021/04/18 04:03:04;;;;;;;1.63;1.30;;;2.80;94.30;;;;;;5046497;28;20731;-70
2021/04/18 04:05:29;;;;;;;1.35;1.23;;;2.90;93.80;;;;;;5046895;28;20257;-72
2021/04/18 04:07:55;;;;;;;2.00;1.20;;;3.00;93.60;;;;;;5047848;28;20189;-70
2021/04/18 04:10:21;;;;;;;1.65;1.20;;;3.10;93.30;;;;;;5043083;28;20201;-71
2021/04/18 04:12:46;;;;;;;1.70;1.33;;;3.10;93.20;;;;;;5057841;28;20347;-70
2021/04/18 04:15:13;;;;;;;2.45;1.13;;;3.20;93.10;;;;;;5045299;28;20198;-70
2021/04/18 04:17:39;;;;;;;1.67;1.30;;;3.30;93.00;;;;;;5045963;28;20190;-69
2021/04/18 04:20:05;;;;;;;1.85;1.27;;;3.40;92.60;;;;;;5044117;28;20189;-70
2021/04/18 04:22:31;;;;;;;1.38;1.15;;;3.40;92.30;;;;;;5045088;28;20610;-70
2021/04/18 04:24:58;;;;;;;1.50;1.30;;;3.50;92.80;;;;;;5042300;28;20321;-70
2021/04/18 04:27:23;;;;;;;2.80;1.30;;;3.60;92.20;;;;;;5043109;28;20216;-72
2021/04/18 04:29:50;;;;;;;2.83;1.15;;;3.60;92.10;;;;;;5045586;28;20193;-70
2021/04/18 04:32:15;;;;;;;1.38;1.02;;;3.60;92.50;;;;;;5042968;28;20209;-71
2021/04/18 04:34:41;;;;;;;2.30;1.30;;;3.60;92.10;;;;;;5039929;28;20198;-71
2021/04/18 04:37:07;;;;;;;1.42;1.23;;;3.60;92.50;;;;;;5040588;28;20271;-71
2021/04/18 04:39:33;;;;;;;1.35;1.20;;;3.70;91.80;;;;;;5042659;28;20644;-69
2021/04/18 04:42:00;;;;;;;1.58;1.00;;;3.80;91.50;;;;;;5042317;28;20194;-68
2021/04/18 04:44:28;;;;;;;2.50;1.40;;;3.90;91.60;;;;;;5044033;28;20208;-69
2021/04/18 04:46:54;;;;;;;4.40;1.60;;;3.90;91.60;;;;;;5044286;28;20190;-70
2021/04/18 04:49:19;;;;;;;2.30;1.38;;;3.90;91.80;;;;;;5042903;28;20616;-72
2021/04/18 04:51:45;;;;;;;2.22;1.30;;;3.90;91.60;;;;;;5059995;28;20201;-70
2021/04/18 04:54:11;;;;;;;1.83;1.20;;;3.90;91.50;;;;;;5042591;28;20197;-70
2021/04/18 04:56:36;;;;;;;3.72;1.40;;;4.00;91.60;;;;;;5044433;28;20205;-70
2021/04/18 04:59:02;;;;;;;4.10;1.38;;;4.10;91.30;;;;;;5044403;28;20995;-71
2021/04/18 05:01:28;;;;;;;3.72;1.40;;;4.20;91.10;;;;;;5041023;28;20197;-70
2021/04/18 05:03:53;;;;;;;2.00;1.15;;;4.20;91.20;;;;;;5035342;28;20225;-70
2021/04/18 05:06:19;;;;;;;4.47;1.23;;;4.30;91.10;;;;;;5043789;28;20251;-70
2021/04/18 05:08:45;;;;;;;1.60;1.42;;;4.40;91.10;;;;;;5043817;28;20218;-69
2021/04/18 05:11:10;;;;;;;1.30;1.10;;;4.50;90.80;;;;;;5042890;28;20206;-69
2021/04/18 05:13:36;;;;;;;2.38;1.10;;;4.60;90.70;;;;;;5042537;28;20280;-69
2021/04/18 05:16:02;;;;;;;2.58;1.30;;;4.70;90.60;;;;;;5042699;28;20310;-69
2021/04/18 05:18:27;;;;;;;1.35;1.15;;;4.70;90.60;;;;;;5041712;28;20522;-70
2021/04/18 05:20:53;;;;;;;1.70;1.20;;;4.80;90.40;;;;;;5042831;28;20692;-70
2021/04/18 05:23:19;;;;;;;4.55;1.50;;;4.90;90.20;;;;;;5046270;28;20189;-70
2021/04/18 05:25:45;;;;;;;2.75;1.25;;;5.00;90.10;;;;;;5041700;28;20212;-69
2021/04/18 05:28:10;;;;;;;1.40;1.20;;;5.10;90.20;;;;;;5043784;28;20201;-69
2021/04/18 05:30:36;;;;;;;1.85;1.30;;;5.10;90.20;;;;;;5042619;28;20225;-70
2021/04/18 05:33:02;;;;;;;4.07;1.50;;;5.20;90.00;;;;;;5045098;28;20197;-70
2021/04/18 05:35:27;;;;;;;1.40;1.30;;;5.20;90.40;;;;;;5043917;28;20201;-70
2021/04/18 05:37:53;;;;;;;2.63;1.40;;;5.30;89.80;;;;;;5043007;28;20653;-72
2021/04/18 05:40:19;;;;;;;2.65;1.38;;;5.40;90.10;;;;;;5042713;28;20200;-71
2021/04/18 05:42:45;;;;;;;4.75;1.70;;;5.50;89.30;;;;;;5060765;28;20702;-70
2021/04/18 05:45:11;;;;;;;4.85;1.30;;;5.60;89.30;;;;;;5044701;28;20202;-70
2021/04/18 05:47:37;;;;;;;1.30;1.20;;;5.60;89.30;;;;;;5047661;28;20206;-70
2021/04/18 05:50:03;;;;;;;1.55;1.20;;;5.70;89.10;;;;;;5046832;28;20193;-70
2021/04/18 05:52:29;;;;;;;2.03;1.40;;;5.70;88.70;;;;;;5049740;28;20753;-72
2021/04/18 05:54:55;;;;;;;1.95;1.40;;;5.80;88.80;;;;;;5045683;28;20208;-69
2021/04/18 05:57:21;;;;;;;3.53;1.40;;;5.90;89.00;;;;;;5048914;28;20207;-69
2021/04/18 05:59:46;;;;;;;2.80;1.40;;;5.90;88.80;;;;;;5046258;28;20182;-70
2021/04/18 06:02:12;;;;;;;3.15;1.55;;;6.00;87.60;;;;;;5046844;28;20284;-70
2021/04/18 06:04:38;;;;;;;2.10;1.30;;;6.10;87.30;;;;;;5047045;28;20233;-71
2021/04/18 06:07:04;;;;;;;4.78;1.45;;;6.20;87.50;;;;;;5041176;28;20201;-70
2021/04/18 06:09:30;;;;;;;2.70;1.10;;;6.20;87.40;;;;;;5046020;28;20722;-72
2021/04/18 06:11:56;;;;;;;2.33;1.30;;;6.30;87.40;;;;;;5049425;28;20193;-69
2021/04/18 06:14:22;;;;;;;4.55;1.35;;;6.40;86.60;;;;;;5047761;28;20203;-70
2021/04/18 06:16:49;;;;;;;2.95;1.55;;;6.50;86.30;;;;;;5061904;28;20240;-71
2021/04/18 06:19:16;;;;;;;1.50;1.20;;;6.60;86.00;;;;;;5044571;28;20695;-72
2021/04/18 06:21:42;;;;;;;1.80;1.30;;;6.70;86.00;;;;;;5042690;28;20193;-70
2021/04/18 06:24:09;;;;;;;3.42;1.38;;;6.80;85.30;;;;;;5048140;28;20656;-71
2021/04/18 06:26:35;;;;;;;3.55;1.48;;;6.90;85.50;;;;;;5039369;28;20213;-70
2021/04/18 06:29:00;;;;;;;3.67;1.88;;;7.00;84.90;;;;;;5043324;28;20201;-70
2021/04/18 06:31:27;;;;;;;2.70;1.40;;;7.10;84.80;;;;;;5045658;28;20215;-69
2021/04/18 06:33:52;;;;;;;4.63;1.40;;;7.20;84.70;;;;;;5046964;28;20232;-70
2021/04/18 06:36:18;;;;;;;1.65;1.27;;;7.30;84.60;;;;;;5063602;28;20224;-72
2021/04/18 06:38:44;;;;;;;2.75;1.38;;;7.30;84.70;;;;;;5046592;28;20205;-71
2021/04/18 06:41:19;;;;;;;2.10;1.48;;;7.40;85.20;;;;;;5063701;28;20193;-70
2021/04/18 06:43:45;;;;;;;1.50;1.25;;;7.50;84.20;;;;;;5047001;28;20201;-71
2021/04/18 06:46:16;;;;;;;6.43;1.67;;;7.60;85.30;;;;;;5047512;28;20217;-71
2021/04/18 06:48:43;;;;;;;3.20;1.40;;;7.70;84.60;;;;;;5044643;28;20193;-69
2021/04/18 06:51:08;;;;;;;2.88;1.30;;;7.80;85.10;;;;;;5038122;28;20295;-72
2021/04/18 06:53:34;;;;;;;2.28;1.30;;;7.80;84.80;;;;;;5039137;28;20245;-69
2021/04/18 06:56:03;;;;;;;3.75;1.27;;;7.90;85.30;;;;;;5040784;28;20204;-71
2021/04/18 06:58:29;;;;;;;1.38;1.20;;;8.00;84.30;;;;;;5038420;28;20197;-71
2021/04/18 07:00:54;;;;;;;1.77;1.23;;;8.10;83.00;;;;;;5039831;28;20194;-70
2021/04/18 07:03:23;;;;;;;3.60;1.50;;;8.20;83.60;;;;;;5042110;28;20202;-71
2021/04/18 07:05:51;;;;;;;5.10;1.58;;;8.30;83.00;;;;;;5040848;28;20244;-70
2021/04/18 07:08:37;;;;;;;1.98;1.33;;;8.40;82.80;;;;;;5039382;28;20196;-70
2021/04/18 07:11:20;;;;;;;1.88;1.20;;;8.50;83.20;;;;;;5036678;28;20228;-70
2021/04/18 07:13:47;;;;;;;2.00;1.38;;;8.70;82.20;;;;;;5038811;28;20982;-71
2021/04/18 07:16:25;;;;;;;1.75;1.30;;;8.90;80.90;;;;;;5042257;28;20213;-72
2021/04/18 07:18:52;;;;;;;2.63;1.35;;;9.10;80.10;;;;;;5038009;28;20307;-71
2021/04/18 07:21:18;;;;;;;2.63;1.50;;;9.20;80.50;;;;;;5036849;28;20209;-72
2021/04/18 07:23:44;;;;;;;2.92;1.17;;;9.40;79.60;;;;;;5035863;28;20289;-71
2021/04/18 07:26:22;;;;;;;3.15;1.30;;;9.50;78.80;;;;;;5037772;28;20305;-71
2021/04/18 07:28:49;;;;;;;2.22;1.20;;;9.60;79.40;;;;;;5025759;28;20205;-70
2021/04/18 07:31:34;;;;;;;4.88;1.20;;;9.70;79.50;;;;;;5037608;28;20206;-73
2021/04/18 07:34:21;;;;;;;2.95;1.45;;;9.90;79.00;;;;;;5036252;28;20205;-73
2021/04/18 07:36:49;;;;;;;4.18;1.38;;;10.00;77.30;;;;;;5036615;28;20218;-70
2021/04/18 07:39:17;;;;;;;3.20;1.50;;;10.20;77.00;;;;;;5039797;28;20201;-69
2021/04/18 07:41:48;;;;;;;2.17;1.50;;;10.30;77.80;;;;;;5039436;28;20221;-71
2021/04/18 07:44:17;;;;;;;1.55;1.40;;;10.40;76.10;;;;;;5041149;28;20221;-71
2021/04/18 07:46:50;;;;;;;2.13;1.30;;;10.60;76.10;;;;;;5037837;28;20205;-70
2021/04/18 07:49:17;;;;;;;4.82;1.20;;;10.60;76.10;;;;;;5035759;28;20193;-69
2021/04/18 07:51:49;;;;;;;1.95;1.20;;;10.90;76.40;;;;;;5035576;28;20288;-72
2021/04/18 07:54:18;;;;;;;2.45;1.40;;;11.20;74.90;;;;;;5041545;28;20204;-70
2021/04/18 07:56:46;;;;;;;2.33;1.30;;;11.50;75.70;;;;;;5043466;28;20267;-71
2021/04/18 07:59:20;;;;;;;4.70;1.30;;;11.70;73.60;;;;;;5039214;28;20937;-72
2021/04/18 08:01:46;;;;;;;3.30;1.50;;;11.90;73.50;;;;;;5041590;28;20250;-72
2021/04/18 08:04:12;;;;;;;2.03;1.23;;;11.90;72.30;;;;;;5041844;28;20217;-72
2021/04/18 08:06:42;;;;;;;2.35;1.50;;;12.00;72.90;;;;;;5059629;28;20204;-71
2021/04/18 08:09:34;;;;;;;3.13;1.38;;;12.00;74.20;;;;;;5059350;28;20300;-71
2021/04/18 08:12:06;;;;;;;4.32;1.50;;;12.10;71.90;;;;;;5042632;28;20213;-72
2021/04/18 08:14:37;;;;;;;4.70;1.23;;;12.20;71.10;;;;;;5044352;28;20304;-71
2021/04/18 08:17:13;;;;;;;2.03;1.20;;;12.20;71.90;;;;;;5040907;28;20248;-72
2021/04/18 08:20:00;;;;;;;2.38;1.40;;;12.40;70.70;;;;;;5040473;28;20280;-71
2021/04/18 08:22:58;;;;;;;4.00;1.30;;;12.50;72.40;;;;;;5044010;28;20197;-71
2021/04/18 08:25:24;;;;;;;1.60;1.23;;;12.80;69.60;;;;;;5020268;28;20221;-71
2021/04/18 08:28:04;;;;;;;3.90;1.48;;;12.80;69.80;;;;;;5043556;28;20633;-73
2021/04/18 08:31:05;;;;;;;5.38;1.50;;;12.90;70.20;;;;;;5093683;27;20606;-72
2021/04/18 08:33:40;;;;;;;4.45;1.50;;;13.20;70.00;;;;;;5116290;27;20249;-70
2021/04/18 08:36:19;;;;;;;4.82;1.20;;;13.40;68.60;;;;;;5097393;28;20187;-72
2021/04/18 08:39:05;;;;;;;3.30;1.15;;;13.60;68.50;;;;;;5098705;28;20219;-73
2021/04/18 08:41:36;;;;;;;1.67;1.00;;;13.80;68.70;;;;;;5099121;28;20616;-72
2021/04/18 08:44:25;;;;;;;3.95;1.27;;;13.90;68.00;;;;;;5114266;27;20212;-71
2021/04/18 08:47:06;;;;;;;1.85;1.20;;;14.30;67.90;;;;;;5096440;28;20195;-72
2021/04/18 08:49:34;;;;;;;1.45;1.05;;;14.60;65.80;;;;;;5097538;28;20238;-72
2021/04/18 08:52:03;;;;;;;6.05;1.30;;;14.60;65.10;;;;;;5101677;28;20199;-72
2021/04/18 08:54:33;;;;;;;1.45;1.10;;;14.80;65.10;;;;;;5099401;28;20302;-71
2021/04/18 08:57:03;;;;;;;1.83;1.10;;;14.90;64.90;;;;;;5099739;28;20697;-71
2021/04/18 08:59:30;;;;;;;4.68;1.30;;;15.10;63.60;;;;;;5099074;28;20270;-72
2021/04/18 09:02:10;;;;;;;2.30;1.23;;;15.30;65.40;;;;;;5100448;28;20191;-71
2021/04/18 09:04:41;;;;;;;3.10;1.30;;;15.50;63.80;;;;;;5102426;28;20227;-72
2021/04/18 09:07:09;;;;;;;2.10;1.30;;;15.50;63.50;;;;;;5100779;28;20195;-73
2021/04/18 09:09:37;;;;;;;3.05;1.20;;;15.50;62.50;;;;;;5099079;28;20227;-70
2021/04/18 09:12:03;;;;;;;1.85;1.20;;;15.70;64.50;;;;;;5101955;28;20269;-72
2021/04/18 09:14:31;;;;;;;3.15;1.15;;;15.70;62.50;;;;;;5093145;28;20636;-73
2021/04/18 09:17:23;;;;;;;4.35;1.20;;;15.90;63.80;;;;;;5094555;28;20572;-73
2021/04/18 09:19:57;;;;;;;2.33;1.20;;;16.00;62.30;;;;;;5091033;28;20662;-71
2021/04/18 09:22:23;;;;;;;3.25;1.35;;;16.40;63.30;;;;;;5095196;28;20222;-74
2021/04/18 09:24:52;;;;;;;3.67;1.38;;;16.90;62.70;;;;;;5097317;28;20200;-71
2021/04/18 09:27:46;;;;;;;6.05;1.40;;;17.10;60.30;;;;;;5095537;28;20215;-71
2021/04/18 09:30:13;;;;;;;5.43;1.40;;;17.30;58.70;;;;;;5092977;28;20215;-73
2021/04/18 09:32:48;;;;;;;4.18;1.30;;;17.50;58.20;;;;;;5092311;28;20234;-71
2021/04/18 09:35:18;;;;;;;3.25;1.30;;;17.40;59.00;;;;;;5097449;28;20352;-73
2021/04/18 09:37:55;;;;;;;2.53;1.20;;;17.20;58.90;;;;;;5097116;28;20195;-71
2021/04/18 09:40:24;;;;;;;4.68;1.20;;;17.40;59.40;;;;;;5092122;28;20210;-72
2021/04/18 09:42:51;;;;;;;1.77;1.00;;;17.60;57.20;;;;;;5079426;28;20223;-71
2021/04/18 09:45:23;;;;;;;3.10;1.10;;;17.60;58.60;;;;;;5076675;28;20295;-72
2021/04/18 09:47:54;;;;;;;4.18;1.45;;;18.10;59.60;;;;;;5075197;28;20249;-71
2021/04/18 09:50:25;;;;;;;4.72;1.02;;;18.40;57.80;;;;;;5076026;28;20630;-73
2021/04/18 09:52:52;;;;;;;2.05;1.20;;;18.90;55.60;;;;;;5075892;28;20280;-72
2021/04/18 09:55:25;;;;;;;1.83;1.13;;;18.90;54.30;;;;;;5077485;28;20417;-72
2021/04/18 09:57:59;;;;;;;5.53;1.13;;;18.90;54.30;;;;;;5076216;28;20192;-73
2021/04/18 10:00:30;;;;;;;1.23;0.90;;;18.70;54.10;;;;;;5084562;28;20658;-72
2021/04/18 10:03:09;;;;;;;7.00;1.10;;;18.60;54.40;;;;;;5092300;28;20261;-70
2021/04/18 10:05:47;;;;;;;5.45;1.15;;;18.30;52.20;;;;;;5085376;28;20192;-70
2021/04/18 10:08:34;;;;;;;2.55;1.00;;;18.60;52.50;;;;;;5080825;28;20188;-71
2021/04/18 10:11:09;;;;;;;2.85;0.98;;;18.70;51.80;;;;;;5080393;28;20216;-71
2021/04/18 10:13:51;;;;;;;2.53;1.10;;;18.90;50.70;;;;;;5083409;28;20204;-72
2021/04/18 10:16:19;;;;;;;1.92;0.95;;;19.10;52.50;;;;;;5080710;28;20241;-73
2021/04/18 10:19:03;;;;;;;4.07;1.40;;;19.30;50.10;;;;;;5086717;28;20760;-73
2021/04/18 10:21:29;;;;;;;3.08;0.85;;;19.30;49.30;;;;;;5083715;28;20209;-73
2021/04/18 10:23:55;;;;;;;1.90;0.93;;;19.50;49.80;;;;;;5085211;28;20248;-74
2021/04/18 10:26:22;;;;;;;3.78;1.10;;;19.80;49.30;;;;;;5082708;28;20219;-73
2021/04/18 10:28:53;;;;;;;2.90;1.08;;;20.20;49.30;;;;;;5077108;28;20231;-71
2021/04/18 10:31:21;;;;;;;3.28;1.10;;;20.50;48.00;;;;;;5076205;28;20201;-74
2021/04/18 10:33:47;;;;;;;3.08;1.20;;;20.90;48.60;;;;;;5077556;28;20192;-74
2021/04/18 10:36:15;;;;;;;3.55;0.93;;;20.70;47.90;;;;;;5079821;28;20192;-74
2021/04/18 10:38:41;;;;;;;4.38;0.98;;;20.60;44.80;;;;;;5081678;28;20639;-74
2021/04/18 10:41:07;;;;;;;1.23;0.90;;;20.60;45.50;;;;;;5078238;28;20207;-73
2021/04/18 10:43:34;;;;;;;2.83;1.02;;;20.90;45.60;;;;;;5080315;28;20204;-74
2021/04/18 10:46:01;;;;;;;1.95;0.90;;;20.60;45.50;;;;;;5083808;27;20311;-74
2021/04/18 10:48:26;;;;;;;4.80;1.30;;;20.60;46.40;;;;;;5078017;28;20208;-72
2021/04/18 10:50:52;;;;;;;1.63;1.10;;;20.40;46.10;;;;;;5081097;28;20692;-73
2021/04/18 10:53:19;;;;;;;2.38;1.00;;;20.20;46.80;;;;;;5073379;28;20193;-73
2021/04/18 10:55:46;;;;;;;6.90;1.20;;;20.20;48.10;;;;;;5078983;28;20241;-72
2021/04/18 10:58:14;;;;;;;2.50;1.02;;;20.60;48.40;;;;;;5080028;28;20192;-73
2021/04/18 11:00:40;;;;;;;5.97;1.27;;;21.00;47.30;;;;;;5080571;28;20192;-73
2021/04/18 11:03:06;;;;;;;4.53;1.10;;;20.90;46.20;;;;;;5082750;28;20204;-72
2021/04/18 11:05:31;;;;;;;2.78;1.10;;;20.90;46.30;;;;;;5078640;28;20737;-72
2021/04/18 11:07:57;;;;;;;3.25;1.17;;;20.60;44.00;;;;;;5081699;28;20204;-73
2021/04/18 11:10:23;;;;;;;3.42;1.10;;;20.40;45.20;;;;;;5081475;28;20208;-72
2021/04/18 11:12:48;;;;;;;3.35;1.00;;;20.60;46.40;;;;;;5078821;28;21344;-72
2021/04/18 11:15:14;;;;;;;2.83;0.80;;;21.10;45.90;;;;;;5077148;28;20204;-73
2021/04/18 11:17:40;;;;;;;1.77;1.10;;;20.90;46.50;;;;;;5069924;28;20694;-72
2021/04/18 11:20:08;;;;;;;1.42;1.00;;;21.00;44.70;;;;;;5076039;28;20545;-71
2021/04/18 11:22:37;;;;;;;1.83;1.00;;;21.00;45.50;;;;;;5075448;28;20196;-72
2021/04/18 11:25:05;;;;;;;3.13;1.13;;;21.00;46.00;;;;;;5078153;28;20278;-71
2021/04/18 11:27:31;;;;;;;3.30;1.13;;;20.90;45.30;;;;;;5078584;28;20208;-72
2021/04/18 11:29:56;;;;;;;1.98;1.20;;;20.90;45.70;;;;;;5077967;28;20235;-72
2021/04/18 11:32:23;;;;;;;2.47;1.00;;;21.10;45.80;;;;;;5079483;28;20293;-74
2021/04/18 11:34:48;;;;;;;2.47;1.20;;;21.40;45.70;;;;;;5077487;28;20219;-73
2021/04/18 11:37:15;;;;;;;2.22;1.00;;;21.40;44.10;;;;;;5078962;28;20192;-72
2021/04/18 11:39:41;;;;;;;4.63;1.00;;;20.90;45.30;;;;;;5076035;28;20191;-73
2021/04/18 11:42:07;;;;;;;4.53;1.35;;;21.20;45.20;;;;;;5070348;28;20620;-74
2021/04/18 11:44:33;;;;;;;3.22;1.20;;;21.60;44.90;;;;;;5078287;28;20291;-74
2021/04/18 11:46:59;;;;;;;3.70;1.13;;;22.10;45.30;;;;;;5078164;28;20196;-73
2021/04/18 11:49:24;;;;;;;2.00;1.10;;;22.40;43.40;;;;;;5075124;28;20567;-73
2021/04/18 11:51:50;;;;;;;3.60;1.15;;;22.30;44.90;;;;;;5076393;28;20713;-74
2021/04/18 11:54:16;;;;;;;3.33;1.23;;;22.70;43.80;;;;;;5079567;28;20481;-73
2021/04/18 11:56:42;;;;;;;2.92;1.00;;;22.20;43.40;;;;;;5073432;28;20200;-72
2021/04/18 11:59:08;;;;;;;2.97;1.20;;;21.70;44.50;;;;;;5077594;28;20293;-74
2021/04/18 12:01:35;;;;;;;2.55;0.93;;;21.50;43.50;;;;;;5076952;28;20316;-75
2021/04/18 12:04:00;;;;;;;3.38;1.10;;;21.40;43.40;;;;;;5074217;28;20400;-75
2021/04/18 12:06:26;;;;;;;6.30;1.20;;;21.90;44.60;;;;;;5078130;28;20314;-74
2021/04/18 12:08:52;;;;;;;6.80;1.20;;;22.00;43.30;;;;;;5074209;28;20252;-74
2021/04/18 12:11:17;;;;;;;5.38;1.20;;;22.50;44.00;;;;;;5080417;28;20192;-74
2021/04/18 12:13:46;;;;;;;6.32;1.27;;;22.80;41.30;;;;;;5076212;28;20199;-71
2021/04/18 12:16:14;;;;;;;5.53;1.25;;;22.80;43.00;;;;;;5081163;28;20306;-74
2021/04/18 12:18:39;;;;;;;3.58;1.00;;;22.80;43.50;;;;;;5078872;28;20260;-74
2021/04/18 12:21:06;;;;;;;6.05;1.40;;;23.10;43.20;;;;;;5078083;28;20204;-74
2021/04/18 12:23:31;;;;;;;2.63;1.10;;;23.20;42.70;;;;;;5078574;28;20294;-74
2021/04/18 12:25:57;;;;;;;2.00;0.90;;;23.20;42.60;;;;;;5080892;28;20650;-74
2021/04/18 12:28:24;;;;;;;2.28;1.08;;;23.10;40.80;;;;;;5073127;28;20287;-73
2021/04/18 12:30:50;;;;;;;4.43;1.40;;;22.60;42.30;;;;;;5069708;28;20326;-74
2021/04/18 12:33:16;;;;;;;5.45;1.30;;;22.40;43.60;;;;;;5078330;28;20288;-74
2021/04/18 12:35:41;;;;;;;4.30;1.10;;;22.40;42.40;;;;;;5087135;28;20238;-75
2021/04/18 12:38:07;;;;;;;3.67;0.95;;;22.70;42.90;;;;;;5074267;28;20269;-74
2021/04/18 12:40:33;;;;;;;2.60;1.50;;;23.00;42.80;;;;;;5072834;28;20188;-74
2021/04/18 12:42:58;;;;;;;2.25;1.25;;;23.00;43.10;;;;;;5071784;28;20296;-74
2021/04/18 12:45:24;;;;;;;6.18;1.00;;;23.20;42.00;;;;;;5077945;28;20192;-74
2021/04/18 12:47:50;;;;;;;5.72;1.50;;;23.40;41.30;;;;;;5077409;28;20211;-74
2021/04/18 12:50:15;;;;;;;4.22;0.90;;;23.60;40.20;;;;;;5076670;28;20282;-74
2021/04/18 12:52:41;;;;;;;1.80;1.10;;;23.60;42.40;;;;;;5075093;28;20204;-74
2021/04/18 12:55:08;;;;;;;1.98;0.95;;;23.40;42.50;;;;;;5071856;28;20224;-74
2021/04/18 12:57:36;;;;;;;1.90;0.85;;;23.20;41.80;;;;;;5073757;28;20710;-74